Terminal Aerodrome Forecast
Issued by NWS Midland/Odessa, TX

Home | Current Version | Previous Version | Text Only | Print | Product List | Glossary On
Versions: 1 2 3 4 5 6 7 8 9 10 11 12 13 14 15 16 17 18 19 20 21 22 23 24
000
FTUS44 KMAF 072320
TAFMAF
TAF
KMAF 072320Z 0800/0824 04011KT P6SM SCT030 BKN040
     FM080600 07008KT P6SM BKN020
      TEMPO 0812/0816 BKN010
     FM081800 15010KT P6SM SCT030 BKN050=

USA.gov is the U.S. government's official web portal to all federal, state and local government web resources and services.